sensor_id;sensor_type;location;lat;lon;timestamp;P1;durP1;ratioP1;P2;durP2;ratioP2
23282;SDS011;11810;51.178;3.878;2023-02-28T00:00:25;18.60;;;10.48;;
23282;SDS011;11810;51.178;3.878;2023-02-28T00:02:51;16.05;;;10.55;;
23282;SDS011;11810;51.178;3.878;2023-02-28T00:05:18;18.08;;;10.82;;
23282;SDS011;11810;51.178;3.878;2023-02-28T00:07:47;13.77;;;10.02;;
23282;SDS011;11810;51.178;3.878;2023-02-28T00:10:15;20.10;;;10.35;;
23282;SDS011;11810;51.178;3.878;2023-02-28T00:12:49;15.90;;;9.93;;
23282;SDS011;11810;51.178;3.878;2023-02-28T00:15:16;12.60;;;9.88;;
23282;SDS011;11810;51.178;3.878;2023-02-28T00:17:42;14.48;;;10.15;;
23282;SDS011;11810;51.178;3.878;2023-02-28T00:20:09;15.48;;;9.98;;
23282;SDS011;11810;51.178;3.878;2023-02-28T00:22:40;14.98;;;9.32;;
23282;SDS011;11810;51.178;3.878;2023-02-28T00:25:08;15.88;;;10.27;;
23282;SDS011;11810;51.178;3.878;2023-02-28T00:27:35;16.45;;;10.15;;
23282;SDS011;11810;51.178;3.878;2023-02-28T00:30:02;17.42;;;10.88;;
23282;SDS011;11810;51.178;3.878;2023-02-28T00:32:29;14.73;;;9.98;;
23282;SDS011;11810;51.178;3.878;2023-02-28T00:34:55;15.10;;;10.05;;
23282;SDS011;11810;51.178;3.878;2023-02-28T00:37:21;14.20;;;11.18;;
23282;SDS011;11810;51.178;3.878;2023-02-28T00:39:48;15.15;;;10.32;;
23282;SDS011;11810;51.178;3.878;2023-02-28T00:42:14;16.02;;;10.75;;
23282;SDS011;11810;51.178;3.878;2023-02-28T00:44:40;17.17;;;10.75;;
23282;SDS011;11810;51.178;3.878;2023-02-28T00:47:06;15.25;;;10.85;;
23282;SDS011;11810;51.178;3.878;2023-02-28T00:49:32;15.23;;;11.32;;
23282;SDS011;11810;51.178;3.878;2023-02-28T00:51:58;17.98;;;12.00;;
23282;SDS011;11810;51.178;3.878;2023-02-28T00:54:24;15.88;;;11.45;;
23282;SDS011;11810;51.178;3.878;2023-02-28T00:56:50;21.92;;;11.90;;
23282;SDS011;11810;51.178;3.878;2023-02-28T00:59:16;16.30;;;11.10;;
23282;SDS011;11810;51.178;3.878;2023-02-28T01:01:43;20.60;;;11.52;;
23282;SDS011;11810;51.178;3.878;2023-02-28T01:04:10;20.52;;;11.35;;
23282;SDS011;11810;51.178;3.878;2023-02-28T01:08:07;16.17;;;10.40;;
23282;SDS011;11810;51.178;3.878;2023-02-28T01:10:33;16.33;;;10.63;;
23282;SDS011;11810;51.178;3.878;2023-02-28T01:14:08;17.17;;;10.70;;
23282;SDS011;11810;51.178;3.878;2023-02-28T01:16:35;18.17;;;10.43;;
23282;SDS011;11810;51.178;3.878;2023-02-28T01:19:01;19.08;;;11.38;;
23282;SDS011;11810;51.178;3.878;2023-02-28T01:26:13;16.15;;;11.27;;
23282;SDS011;11810;51.178;3.878;2023-02-28T01:28:44;18.27;;;11.40;;
23282;SDS011;11810;51.178;3.878;2023-02-28T01:31:11;17.85;;;11.23;;
23282;SDS011;11810;51.178;3.878;2023-02-28T01:33:38;17.52;;;11.88;;
23282;SDS011;11810;51.178;3.878;2023-02-28T01:36:09;22.27;;;11.98;;
23282;SDS011;11810;51.178;3.878;2023-02-28T01:38:37;21.88;;;11.93;;
23282;SDS011;11810;51.178;3.878;2023-02-28T01:41:04;16.10;;;11.43;;
23282;SDS011;11810;51.178;3.878;2023-02-28T01:43:52;14.90;;;10.85;;
23282;SDS011;11810;51.178;3.878;2023-02-28T01:46:24;15.32;;;11.07;;
23282;SDS011;11810;51.178;3.878;2023-02-28T01:49:32;15.55;;;11.85;;
23282;SDS011;11810;51.178;3.878;2023-02-28T01:51:42;19.05;;;11.30;;
23282;SDS011;11810;51.178;3.878;2023-02-28T01:54:16;16.20;;;11.48;;
23282;SDS011;11810;51.178;3.878;2023-02-28T01:56:49;20.63;;;11.43;;
23282;SDS011;11810;51.178;3.878;2023-02-28T01:59:46;13.13;;;11.48;;
23282;SDS011;11810;51.178;3.878;2023-02-28T02:02:18;16.80;;;11.70;;
23282;SDS011;11810;51.178;3.878;2023-02-28T02:06:15;17.92;;;12.05;;
23282;SDS011;11810;51.178;3.878;2023-02-28T02:08:41;23.63;;;12.50;;
23282;SDS011;11810;51.178;3.878;2023-02-28T02:12:27;20.52;;;12.48;;
23282;SDS011;11810;51.178;3.878;2023-02-28T02:18:58;19.55;;;12.00;;
23282;SDS011;11810;51.178;3.878;2023-02-28T02:25:42;18.45;;;12.68;;
23282;SDS011;11810;51.178;3.878;2023-02-28T02:36:28;16.70;;;12.27;;
23282;SDS011;11810;51.178;3.878;2023-02-28T02:46:38;22.90;;;11.00;;
23282;SDS011;11810;51.178;3.878;2023-02-28T02:52:22;16.95;;;12.18;;
23282;SDS011;11810;51.178;3.878;2023-02-28T02:54:54;16.10;;;11.23;;
23282;SDS011;11810;51.178;3.878;2023-02-28T02:57:56;19.90;;;12.02;;
23282;SDS011;11810;51.178;3.878;2023-02-28T03:00:45;24.37;;;12.93;;
23282;SDS011;11810;51.178;3.878;2023-02-28T03:04:23;19.65;;;11.68;;
23282;SDS011;11810;51.178;3.878;2023-02-28T03:06:52;16.50;;;11.55;;
23282;SDS011;11810;51.178;3.878;2023-02-28T03:09:20;20.52;;;11.95;;
23282;SDS011;11810;51.178;3.878;2023-02-28T03:31:08;16.60;;;11.27;;
23282;SDS011;11810;51.178;3.878;2023-02-28T03:35:26;20.27;;;11.43;;
23282;SDS011;11810;51.178;3.878;2023-02-28T03:38:03;18.10;;;11.55;;
23282;SDS011;11810;51.178;3.878;2023-02-28T03:42:29;17.33;;;11.63;;
23282;SDS011;11810;51.178;3.878;2023-02-28T03:45:00;15.75;;;11.68;;
23282;SDS011;11810;51.178;3.878;2023-02-28T03:47:35;16.23;;;11.52;;
23282;SDS011;11810;51.178;3.878;2023-02-28T03:51:27;16.30;;;10.80;;
23282;SDS011;11810;51.178;3.878;2023-02-28T03:53:56;17.20;;;11.27;;
23282;SDS011;11810;51.178;3.878;2023-02-28T04:02:39;17.95;;;11.00;;
23282;SDS011;11810;51.178;3.878;2023-02-28T04:08:29;15.35;;;10.70;;
23282;SDS011;11810;51.178;3.878;2023-02-28T04:10:57;15.40;;;10.95;;
23282;SDS011;11810;51.178;3.878;2023-02-28T04:13:31;18.00;;;11.27;;
23282;SDS011;11810;51.178;3.878;2023-02-28T04:15:56;16.08;;;10.15;;
23282;SDS011;11810;51.178;3.878;2023-02-28T04:18:23;23.67;;;11.30;;
23282;SDS011;11810;51.178;3.878;2023-02-28T04:20:48;18.17;;;10.55;;
23282;SDS011;11810;51.178;3.878;2023-02-28T04:23:14;20.63;;;11.60;;
23282;SDS011;11810;51.178;3.878;2023-02-28T04:25:40;22.60;;;10.20;;
23282;SDS011;11810;51.178;3.878;2023-02-28T04:28:06;16.80;;;10.80;;
23282;SDS011;11810;51.178;3.878;2023-02-28T04:31:32;14.98;;;9.95;;
23282;SDS011;11810;51.178;3.878;2023-02-28T04:33:59;17.25;;;9.88;;
23282;SDS011;11810;51.178;3.878;2023-02-28T04:36:25;13.98;;;9.90;;
23282;SDS011;11810;51.178;3.878;2023-02-28T04:38:51;16.00;;;10.45;;
23282;SDS011;11810;51.178;3.878;2023-02-28T04:42:33;14.18;;;9.60;;
23282;SDS011;11810;51.178;3.878;2023-02-28T04:45:34;19.30;;;9.98;;
23282;SDS011;11810;51.178;3.878;2023-02-28T04:48:00;14.13;;;9.75;;
23282;SDS011;11810;51.178;3.878;2023-02-28T04:50:26;13.48;;;9.63;;
23282;SDS011;11810;51.178;3.878;2023-02-28T04:52:52;13.15;;;9.00;;
23282;SDS011;11810;51.178;3.878;2023-02-28T04:55:19;12.35;;;9.18;;
23282;SDS011;11810;51.178;3.878;2023-02-28T04:57:45;13.98;;;9.40;;
23282;SDS011;11810;51.178;3.878;2023-02-28T05:00:11;13.70;;;8.93;;
23282;SDS011;11810;51.178;3.878;2023-02-28T05:02:40;14.73;;;9.57;;
23282;SDS011;11810;51.178;3.878;2023-02-28T05:05:06;12.13;;;9.18;;
23282;SDS011;11810;51.178;3.878;2023-02-28T05:07:32;13.55;;;9.23;;
23282;SDS011;11810;51.178;3.878;2023-02-28T05:09:58;12.65;;;9.32;;
23282;SDS011;11810;51.178;3.878;2023-02-28T05:12:24;23.00;;;9.63;;
23282;SDS011;11810;51.178;3.878;2023-02-28T05:14:50;14.85;;;9.63;;
23282;SDS011;11810;51.178;3.878;2023-02-28T05:17:15;17.30;;;9.07;;
23282;SDS011;11810;51.178;3.878;2023-02-28T05:19:41;12.95;;;9.52;;
23282;SDS011;11810;51.178;3.878;2023-02-28T05:22:12;14.25;;;8.75;;
23282;SDS011;11810;51.178;3.878;2023-02-28T05:24:40;16.42;;;9.40;;
23282;SDS011;11810;51.178;3.878;2023-02-28T05:27:07;13.60;;;9.38;;
23282;SDS011;11810;51.178;3.878;2023-02-28T05:29:34;16.90;;;9.25;;
23282;SDS011;11810;51.178;3.878;2023-02-28T05:32:08;12.38;;;9.23;;
23282;SDS011;11810;51.178;3.878;2023-02-28T05:34:35;13.90;;;9.20;;
23282;SDS011;11810;51.178;3.878;2023-02-28T05:37:03;15.82;;;10.00;;
23282;SDS011;11810;51.178;3.878;2023-02-28T05:39:29;16.60;;;9.75;;
23282;SDS011;11810;51.178;3.878;2023-02-28T05:41:55;13.85;;;9.75;;
23282;SDS011;11810;51.178;3.878;2023-02-28T05:44:20;16.55;;;10.05;;
23282;SDS011;11810;51.178;3.878;2023-02-28T05:46:46;16.95;;;9.48;;
23282;SDS011;11810;51.178;3.878;2023-02-28T05:49:12;16.17;;;10.27;;
23282;SDS011;11810;51.178;3.878;2023-02-28T05:51:38;12.90;;;9.57;;
23282;SDS011;11810;51.178;3.878;2023-02-28T05:54:05;15.52;;;8.75;;
23282;SDS011;11810;51.178;3.878;2023-02-28T05:56:42;16.40;;;10.23;;
23282;SDS011;11810;51.178;3.878;2023-02-28T05:59:12;17.25;;;9.57;;
23282;SDS011;11810;51.178;3.878;2023-02-28T06:01:42;15.90;;;10.35;;
23282;SDS011;11810;51.178;3.878;2023-02-28T06:04:16;14.65;;;10.45;;
23282;SDS011;11810;51.178;3.878;2023-02-28T06:06:46;17.77;;;10.52;;
23282;SDS011;11810;51.178;3.878;2023-02-28T06:09:13;16.95;;;10.55;;
23282;SDS011;11810;51.178;3.878;2023-02-28T06:12:44;15.30;;;10.05;;
23282;SDS011;11810;51.178;3.878;2023-02-28T06:15:14;13.95;;;10.30;;
23282;SDS011;11810;51.178;3.878;2023-02-28T06:17:42;13.27;;;10.15;;
23282;SDS011;11810;51.178;3.878;2023-02-28T06:20:09;23.77;;;10.68;;
23282;SDS011;11810;51.178;3.878;2023-02-28T06:22:38;20.05;;;10.25;;
23282;SDS011;11810;51.178;3.878;2023-02-28T06:27:46;18.40;;;10.77;;
23282;SDS011;11810;51.178;3.878;2023-02-28T06:30:13;17.85;;;10.50;;
23282;SDS011;11810;51.178;3.878;2023-02-28T06:36:49;17.17;;;9.63;;
23282;SDS011;11810;51.178;3.878;2023-02-28T06:40:55;15.65;;;9.82;;
23282;SDS011;11810;51.178;3.878;2023-02-28T06:43:23;18.85;;;9.80;;
23282;SDS011;11810;51.178;3.878;2023-02-28T06:45:50;15.32;;;10.10;;
23282;SDS011;11810;51.178;3.878;2023-02-28T06:48:19;18.08;;;9.98;;
23282;SDS011;11810;51.178;3.878;2023-02-28T06:50:45;18.95;;;8.98;;
23282;SDS011;11810;51.178;3.878;2023-02-28T06:53:12;12.30;;;9.13;;
23282;SDS011;11810;51.178;3.878;2023-02-28T06:55:38;22.35;;;9.82;;
23282;SDS011;11810;51.178;3.878;2023-02-28T06:58:04;14.18;;;8.70;;
23282;SDS011;11810;51.178;3.878;2023-02-28T07:00:50;16.42;;;8.82;;
23282;SDS011;11810;51.178;3.878;2023-02-28T07:03:17;14.68;;;8.90;;
23282;SDS011;11810;51.178;3.878;2023-02-28T07:05:44;11.18;;;8.23;;
23282;SDS011;11810;51.178;3.878;2023-02-28T07:08:10;13.85;;;8.70;;
23282;SDS011;11810;51.178;3.878;2023-02-28T07:10:37;12.45;;;7.75;;
23282;SDS011;11810;51.178;3.878;2023-02-28T07:13:03;13.73;;;7.72;;
23282;SDS011;11810;51.178;3.878;2023-02-28T07:15:30;11.85;;;7.32;;
23282;SDS011;11810;51.178;3.878;2023-02-28T07:17:56;10.40;;;6.68;;
23282;SDS011;11810;51.178;3.878;2023-02-28T07:20:22;9.07;;;6.22;;
23282;SDS011;11810;51.178;3.878;2023-02-28T07:22:49;7.97;;;5.78;;
23282;SDS011;11810;51.178;3.878;2023-02-28T07:25:22;10.50;;;6.03;;
23282;SDS011;11810;51.178;3.878;2023-02-28T07:27:48;9.00;;;5.80;;
23282;SDS011;11810;51.178;3.878;2023-02-28T07:30:14;8.48;;;5.25;;
23282;SDS011;11810;51.178;3.878;2023-02-28T07:33:53;7.60;;;5.40;;
23282;SDS011;11810;51.178;3.878;2023-02-28T07:36:21;8.32;;;5.22;;
23282;SDS011;11810;51.178;3.878;2023-02-28T07:38:47;6.20;;;5.03;;
23282;SDS011;11810;51.178;3.878;2023-02-28T07:41:19;6.72;;;4.90;;
23282;SDS011;11810;51.178;3.878;2023-02-28T07:43:46;10.40;;;4.80;;
23282;SDS011;11810;51.178;3.878;2023-02-28T07:46:13;6.65;;;4.05;;
23282;SDS011;11810;51.178;3.878;2023-02-28T07:48:41;7.95;;;4.00;;
23282;SDS011;11810;51.178;3.878;2023-02-28T07:51:07;6.20;;;4.32;;
23282;SDS011;11810;51.178;3.878;2023-02-28T07:53:33;8.60;;;4.38;;
23282;SDS011;11810;51.178;3.878;2023-02-28T07:56:00;6.20;;;4.03;;
23282;SDS011;11810;51.178;3.878;2023-02-28T07:58:26;6.95;;;4.07;;
23282;SDS011;11810;51.178;3.878;2023-02-28T08:00:54;7.70;;;3.72;;
23282;SDS011;11810;51.178;3.878;2023-02-28T08:03:21;7.88;;;4.20;;
23282;SDS011;11810;51.178;3.878;2023-02-28T08:05:48;6.78;;;3.95;;
23282;SDS011;11810;51.178;3.878;2023-02-28T08:08:14;8.40;;;3.53;;
23282;SDS011;11810;51.178;3.878;2023-02-28T08:10:42;8.63;;;3.60;;
23282;SDS011;11810;51.178;3.878;2023-02-28T08:13:08;5.55;;;3.75;;
23282;SDS011;11810;51.178;3.878;2023-02-28T08:15:34;8.40;;;4.35;;
23282;SDS011;11810;51.178;3.878;2023-02-28T08:18:01;8.05;;;4.53;;
23282;SDS011;11810;51.178;3.878;2023-02-28T08:20:27;4.53;;;3.90;;
23282;SDS011;11810;51.178;3.878;2023-02-28T08:22:53;11.73;;;4.68;;
23282;SDS011;11810;51.178;3.878;2023-02-28T08:25:19;7.40;;;4.35;;
23282;SDS011;11810;51.178;3.878;2023-02-28T08:27:46;8.95;;;5.00;;
23282;SDS011;11810;51.178;3.878;2023-02-28T08:32:00;10.65;;;5.30;;
23282;SDS011;11810;51.178;3.878;2023-02-28T08:34:26;7.65;;;5.43;;
23282;SDS011;11810;51.178;3.878;2023-02-28T08:36:52;9.10;;;5.07;;
23282;SDS011;11810;51.178;3.878;2023-02-28T08:39:18;14.38;;;6.30;;
23282;SDS011;11810;51.178;3.878;2023-02-28T08:41:45;9.80;;;5.80;;
23282;SDS011;11810;51.178;3.878;2023-02-28T08:44:11;8.05;;;5.40;;
23282;SDS011;11810;51.178;3.878;2023-02-28T08:46:37;11.55;;;5.75;;
23282;SDS011;11810;51.178;3.878;2023-02-28T08:49:03;8.45;;;5.80;;
23282;SDS011;11810;51.178;3.878;2023-02-28T08:51:29;10.52;;;5.88;;
23282;SDS011;11810;51.178;3.878;2023-02-28T08:53:57;7.82;;;5.70;;
23282;SDS011;11810;51.178;3.878;2023-02-28T08:56:25;10.25;;;5.80;;
23282;SDS011;11810;51.178;3.878;2023-02-28T08:58:51;12.15;;;6.35;;
23282;SDS011;11810;51.178;3.878;2023-02-28T09:01:25;9.65;;;6.18;;
23282;SDS011;11810;51.178;3.878;2023-02-28T09:03:52;14.27;;;6.78;;
23282;SDS011;11810;51.178;3.878;2023-02-28T09:06:20;11.75;;;6.80;;
23282;SDS011;11810;51.178;3.878;2023-02-28T09:08:47;14.23;;;6.90;;
23282;SDS011;11810;51.178;3.878;2023-02-28T09:11:13;10.23;;;6.63;;
23282;SDS011;11810;51.178;3.878;2023-02-28T09:13:39;13.55;;;7.25;;
23282;SDS011;11810;51.178;3.878;2023-02-28T09:16:08;11.43;;;7.50;;
23282;SDS011;11810;51.178;3.878;2023-02-28T09:18:36;9.27;;;6.68;;
23282;SDS011;11810;51.178;3.878;2023-02-28T09:21:04;10.25;;;6.75;;
23282;SDS011;11810;51.178;3.878;2023-02-28T09:24:08;10.93;;;6.65;;
23282;SDS011;11810;51.178;3.878;2023-02-28T09:26:34;11.30;;;7.20;;
23282;SDS011;11810;51.178;3.878;2023-02-28T09:29:00;12.05;;;6.82;;
23282;SDS011;11810;51.178;3.878;2023-02-28T09:31:27;15.93;;;6.72;;
23282;SDS011;11810;51.178;3.878;2023-02-28T09:33:54;8.80;;;6.57;;
23282;SDS011;11810;51.178;3.878;2023-02-28T09:36:22;7.15;;;5.28;;
23282;SDS011;11810;51.178;3.878;2023-02-28T09:38:49;7.57;;;5.10;;
23282;SDS011;11810;51.178;3.878;2023-02-28T09:41:23;9.68;;;4.70;;
23282;SDS011;11810;51.178;3.878;2023-02-28T09:43:56;8.63;;;3.83;;
23282;SDS011;11810;51.178;3.878;2023-02-28T09:48:53;5.07;;;4.07;;
23282;SDS011;11810;51.178;3.878;2023-02-28T09:52:10;5.60;;;4.25;;
23282;SDS011;11810;51.178;3.878;2023-02-28T09:54:44;8.48;;;4.07;;
23282;SDS011;11810;51.178;3.878;2023-02-28T10:05:48;5.05;;;2.97;;
23282;SDS011;11810;51.178;3.878;2023-02-28T10:08:40;4.38;;;2.30;;
23282;SDS011;11810;51.178;3.878;2023-02-28T10:11:14;4.63;;;2.63;;
23282;SDS011;11810;51.178;3.878;2023-02-28T10:16:16;8.63;;;3.40;;
23282;SDS011;11810;51.178;3.878;2023-02-28T10:18:48;4.95;;;3.13;;
23282;SDS011;11810;51.178;3.878;2023-02-28T10:23:56;4.60;;;3.00;;
23282;SDS011;11810;51.178;3.878;2023-02-28T10:26:28;6.28;;;3.22;;
23282;SDS011;11810;51.178;3.878;2023-02-28T10:28:57;4.70;;;2.90;;
23282;SDS011;11810;51.178;3.878;2023-02-28T10:31:23;4.65;;;2.90;;
23282;SDS011;11810;51.178;3.878;2023-02-28T10:33:49;7.97;;;3.20;;
23282;SDS011;11810;51.178;3.878;2023-02-28T10:36:16;5.90;;;3.30;;
23282;SDS011;11810;51.178;3.878;2023-02-28T10:38:44;6.80;;;3.22;;
23282;SDS011;11810;51.178;3.878;2023-02-28T10:46:56;6.60;;;3.20;;
23282;SDS011;11810;51.178;3.878;2023-02-28T10:49:23;4.47;;;2.78;;
23282;SDS011;11810;51.178;3.878;2023-02-28T10:52:00;3.50;;;3.00;;
23282;SDS011;11810;51.178;3.878;2023-02-28T10:54:28;4.47;;;3.03;;
23282;SDS011;11810;51.178;3.878;2023-02-28T10:57:08;9.00;;;2.70;;
23282;SDS011;11810;51.178;3.878;2023-02-28T10:59:45;7.05;;;2.70;;
23282;SDS011;11810;51.178;3.878;2023-02-28T11:02:30;5.68;;;2.60;;
23282;SDS011;11810;51.178;3.878;2023-02-28T11:04:56;3.55;;;2.50;;
23282;SDS011;11810;51.178;3.878;2023-02-28T11:07:22;5.05;;;2.60;;
23282;SDS011;11810;51.178;3.878;2023-02-28T11:09:51;6.13;;;2.60;;
23282;SDS011;11810;51.178;3.878;2023-02-28T11:12:37;4.50;;;2.65;;
23282;SDS011;11810;51.178;3.878;2023-02-28T11:15:14;3.85;;;2.10;;
23282;SDS011;11810;51.178;3.878;2023-02-28T11:17:57;8.65;;;2.47;;
23282;SDS011;11810;51.178;3.878;2023-02-28T11:20:28;4.97;;;2.30;;
23282;SDS011;11810;51.178;3.878;2023-02-28T11:22:57;3.35;;;2.75;;
23282;SDS011;11810;51.178;3.878;2023-02-28T11:25:36;5.28;;;2.50;;
23282;SDS011;11810;51.178;3.878;2023-02-28T11:28:04;4.85;;;2.85;;
23282;SDS011;11810;51.178;3.878;2023-02-28T11:32:59;5.03;;;2.67;;
23282;SDS011;11810;51.178;3.878;2023-02-28T11:35:28;6.15;;;2.90;;
23282;SDS011;11810;51.178;3.878;2023-02-28T11:37:59;7.85;;;2.13;;
23282;SDS011;11810;51.178;3.878;2023-02-28T11:43:18;6.03;;;2.90;;
23282;SDS011;11810;51.178;3.878;2023-02-28T11:51:28;5.57;;;2.53;;
23282;SDS011;11810;51.178;3.878;2023-02-28T11:56:31;3.80;;;2.42;;
23282;SDS011;11810;51.178;3.878;2023-02-28T12:05:10;4.35;;;2.08;;
23282;SDS011;11810;51.178;3.878;2023-02-28T12:10:35;3.63;;;2.05;;
23282;SDS011;11810;51.178;3.878;2023-02-28T12:13:20;5.60;;;2.25;;
23282;SDS011;11810;51.178;3.878;2023-02-28T12:21:30;4.57;;;2.33;;
23282;SDS011;11810;51.178;3.878;2023-02-28T12:27:05;5.80;;;2.33;;
23282;SDS011;11810;51.178;3.878;2023-02-28T12:29:56;3.85;;;2.10;;
23282;SDS011;11810;51.178;3.878;2023-02-28T12:40:15;7.43;;;2.20;;
23282;SDS011;11810;51.178;3.878;2023-02-28T12:42:58;2.67;;;1.73;;
23282;SDS011;11810;51.178;3.878;2023-02-28T12:48:21;2.97;;;2.00;;
23282;SDS011;11810;51.178;3.878;2023-02-28T12:51:11;3.47;;;2.00;;
23282;SDS011;11810;51.178;3.878;2023-02-28T12:53:46;3.30;;;1.90;;
23282;SDS011;11810;51.178;3.878;2023-02-28T12:58:51;3.42;;;2.20;;
23282;SDS011;11810;51.178;3.878;2023-02-28T13:05:04;3.05;;;2.45;;
23282;SDS011;11810;51.178;3.878;2023-02-28T13:07:43;3.03;;;1.77;;
23282;SDS011;11810;51.178;3.878;2023-02-28T13:10:14;2.25;;;1.65;;
23282;SDS011;11810;51.178;3.878;2023-02-28T13:12:51;2.30;;;1.77;;
23282;SDS011;11810;51.178;3.878;2023-02-28T13:15:26;3.03;;;1.83;;
23282;SDS011;11810;51.178;3.878;2023-02-28T13:17:57;2.20;;;1.98;;
23282;SDS011;11810;51.178;3.878;2023-02-28T13:20:36;3.22;;;1.83;;
23282;SDS011;11810;51.178;3.878;2023-02-28T13:26:12;4.88;;;1.88;;
23282;SDS011;11810;51.178;3.878;2023-02-28T13:31:24;2.97;;;2.00;;
23282;SDS011;11810;51.178;3.878;2023-02-28T13:44:02;2.28;;;1.83;;
23282;SDS011;11810;51.178;3.878;2023-02-28T14:05:24;7.55;;;2.70;;
23282;SDS011;11810;51.178;3.878;2023-02-28T14:07:53;4.63;;;2.53;;
23282;SDS011;11810;51.178;3.878;2023-02-28T14:10:26;12.52;;;3.00;;
23282;SDS011;11810;51.178;3.878;2023-02-28T14:16:03;6.70;;;2.67;;
23282;SDS011;11810;51.178;3.878;2023-02-28T14:18:25;3.15;;;2.60;;
23282;SDS011;11810;51.178;3.878;2023-02-28T14:21:23;3.72;;;2.40;;
23282;SDS011;11810;51.178;3.878;2023-02-28T14:27:05;2.65;;;2.45;;
23282;SDS011;11810;51.178;3.878;2023-02-28T14:29:56;4.65;;;2.80;;
23282;SDS011;11810;51.178;3.878;2023-02-28T14:38:22;8.65;;;3.00;;
23282;SDS011;11810;51.178;3.878;2023-02-28T14:41:02;3.25;;;2.95;;
23282;SDS011;11810;51.178;3.878;2023-02-28T14:43:31;3.55;;;2.90;;
23282;SDS011;11810;51.178;3.878;2023-02-28T14:45:59;5.50;;;3.10;;
23282;SDS011;11810;51.178;3.878;2023-02-28T14:48:29;6.82;;;3.15;;
23282;SDS011;11810;51.178;3.878;2023-02-28T14:50:59;4.65;;;2.88;;
23282;SDS011;11810;51.178;3.878;2023-02-28T14:53:27;4.93;;;3.03;;
23282;SDS011;11810;51.178;3.878;2023-02-28T14:55:55;4.28;;;2.85;;
23282;SDS011;11810;51.178;3.878;2023-02-28T14:58:30;3.92;;;2.80;;
23282;SDS011;11810;51.178;3.878;2023-02-28T15:00:59;8.85;;;3.30;;
23282;SDS011;11810;51.178;3.878;2023-02-28T15:03:36;3.20;;;2.72;;
23282;SDS011;11810;51.178;3.878;2023-02-28T15:06:16;3.50;;;3.17;;
23282;SDS011;11810;51.178;3.878;2023-02-28T15:08:43;6.45;;;2.92;;
23282;SDS011;11810;51.178;3.878;2023-02-28T15:11:14;6.97;;;2.90;;
23282;SDS011;11810;51.178;3.878;2023-02-28T15:13:50;4.45;;;2.80;;
23282;SDS011;11810;51.178;3.878;2023-02-28T15:18:50;5.60;;;2.60;;
23282;SDS011;11810;51.178;3.878;2023-02-28T15:21:29;5.43;;;2.78;;
23282;SDS011;11810;51.178;3.878;2023-02-28T15:24:02;6.05;;;2.95;;
23282;SDS011;11810;51.178;3.878;2023-02-28T15:26:33;5.47;;;2.95;;
23282;SDS011;11810;51.178;3.878;2023-02-28T15:29:12;7.00;;;3.50;;
23282;SDS011;11810;51.178;3.878;2023-02-28T15:31:46;7.95;;;3.63;;
23282;SDS011;11810;51.178;3.878;2023-02-28T15:34:41;5.47;;;3.20;;
23282;SDS011;11810;51.178;3.878;2023-02-28T15:39:54;4.78;;;3.33;;
23282;SDS011;11810;51.178;3.878;2023-02-28T15:42:22;3.95;;;3.35;;
23282;SDS011;11810;51.178;3.878;2023-02-28T15:47:05;4.38;;;2.90;;
23282;SDS011;11810;51.178;3.878;2023-02-28T15:49:47;5.05;;;3.30;;
23282;SDS011;11810;51.178;3.878;2023-02-28T15:52:40;3.30;;;3.00;;
23282;SDS011;11810;51.178;3.878;2023-02-28T15:55:09;6.35;;;3.00;;
23282;SDS011;11810;51.178;3.878;2023-02-28T15:57:56;4.80;;;2.90;;
23282;SDS011;11810;51.178;3.878;2023-02-28T16:00:30;5.45;;;3.40;;
23282;SDS011;11810;51.178;3.878;2023-02-28T16:03:00;6.20;;;3.35;;
23282;SDS011;11810;51.178;3.878;2023-02-28T16:05:29;4.50;;;3.08;;
23282;SDS011;11810;51.178;3.878;2023-02-28T16:07:57;4.65;;;3.35;;
23282;SDS011;11810;51.178;3.878;2023-02-28T16:10:26;5.82;;;3.33;;
23282;SDS011;11810;51.178;3.878;2023-02-28T16:12:54;7.35;;;3.63;;
23282;SDS011;11810;51.178;3.878;2023-02-28T16:15:28;6.50;;;3.10;;
23282;SDS011;11810;51.178;3.878;2023-02-28T16:17:56;9.07;;;3.22;;
23282;SDS011;11810;51.178;3.878;2023-02-28T16:20:27;4.88;;;3.15;;
23282;SDS011;11810;51.178;3.878;2023-02-28T16:22:55;4.68;;;3.67;;
23282;SDS011;11810;51.178;3.878;2023-02-28T16:25:40;5.93;;;3.92;;
23282;SDS011;11810;51.178;3.878;2023-02-28T16:28:19;5.28;;;3.13;;
23282;SDS011;11810;51.178;3.878;2023-02-28T16:30:51;4.40;;;3.53;;
23282;SDS011;11810;51.178;3.878;2023-02-28T16:33:17;4.35;;;3.33;;
23282;SDS011;11810;51.178;3.878;2023-02-28T16:35:43;4.63;;;3.40;;
23282;SDS011;11810;51.178;3.878;2023-02-28T16:38:09;4.72;;;3.47;;
23282;SDS011;11810;51.178;3.878;2023-02-28T16:40:35;6.20;;;3.75;;
23282;SDS011;11810;51.178;3.878;2023-02-28T16:43:04;7.07;;;3.67;;
23282;SDS011;11810;51.178;3.878;2023-02-28T16:45:33;4.05;;;3.65;;
23282;SDS011;11810;51.178;3.878;2023-02-28T16:47:59;4.25;;;3.72;;
23282;SDS011;11810;51.178;3.878;2023-02-28T16:50:27;5.43;;;3.78;;
23282;SDS011;11810;51.178;3.878;2023-02-28T16:52:54;5.45;;;3.40;;
23282;SDS011;11810;51.178;3.878;2023-02-28T16:55:22;4.95;;;3.90;;
23282;SDS011;11810;51.178;3.878;2023-02-28T16:57:59;4.50;;;3.90;;
23282;SDS011;11810;51.178;3.878;2023-02-28T17:00:28;3.80;;;3.40;;
23282;SDS011;11810;51.178;3.878;2023-02-28T17:02:56;3.72;;;3.33;;
23282;SDS011;11810;51.178;3.878;2023-02-28T17:05:24;5.07;;;3.60;;
23282;SDS011;11810;51.178;3.878;2023-02-28T17:07:52;6.38;;;4.15;;
23282;SDS011;11810;51.178;3.878;2023-02-28T17:10:19;5.13;;;3.53;;
23282;SDS011;11810;51.178;3.878;2023-02-28T17:12:47;5.43;;;3.78;;
23282;SDS011;11810;51.178;3.878;2023-02-28T17:15:13;4.72;;;3.63;;
23282;SDS011;11810;51.178;3.878;2023-02-28T17:17:41;6.68;;;3.85;;
23282;SDS011;11810;51.178;3.878;2023-02-28T17:20:11;4.95;;;3.80;;
23282;SDS011;11810;51.178;3.878;2023-02-28T17:22:41;5.88;;;4.18;;
23282;SDS011;11810;51.178;3.878;2023-02-28T17:25:08;5.63;;;4.18;;
23282;SDS011;11810;51.178;3.878;2023-02-28T17:27:35;8.02;;;3.90;;
23282;SDS011;11810;51.178;3.878;2023-02-28T17:30:03;5.80;;;4.15;;
23282;SDS011;11810;51.178;3.878;2023-02-28T17:32:38;5.88;;;4.22;;
23282;SDS011;11810;51.178;3.878;2023-02-28T17:35:04;4.80;;;4.30;;
23282;SDS011;11810;51.178;3.878;2023-02-28T17:41:04;6.32;;;4.28;;
23282;SDS011;11810;51.178;3.878;2023-02-28T17:43:30;5.28;;;4.47;;
23282;SDS011;11810;51.178;3.878;2023-02-28T17:45:56;8.38;;;4.40;;
23282;SDS011;11810;51.178;3.878;2023-02-28T17:48:23;6.50;;;4.07;;
23282;SDS011;11810;51.178;3.878;2023-02-28T17:50:49;7.30;;;4.72;;
23282;SDS011;11810;51.178;3.878;2023-02-28T17:53:16;7.82;;;4.55;;
23282;SDS011;11810;51.178;3.878;2023-02-28T17:55:42;5.97;;;4.45;;
23282;SDS011;11810;51.178;3.878;2023-02-28T17:58:09;6.15;;;4.57;;
23282;SDS011;11810;51.178;3.878;2023-02-28T18:00:37;7.22;;;4.93;;
23282;SDS011;11810;51.178;3.878;2023-02-28T18:03:03;6.32;;;5.25;;
23282;SDS011;11810;51.178;3.878;2023-02-28T18:05:29;7.43;;;5.22;;
23282;SDS011;11810;51.178;3.878;2023-02-28T18:09:05;6.68;;;4.82;;
23282;SDS011;11810;51.178;3.878;2023-02-28T18:15:09;8.05;;;5.70;;
23282;SDS011;11810;51.178;3.878;2023-02-28T18:17:35;7.85;;;5.95;;
23282;SDS011;11810;51.178;3.878;2023-02-28T18:21:06;8.48;;;5.75;;
23282;SDS011;11810;51.178;3.878;2023-02-28T18:25:38;7.60;;;5.57;;
23282;SDS011;11810;51.178;3.878;2023-02-28T18:28:05;7.50;;;5.53;;
23282;SDS011;11810;51.178;3.878;2023-02-28T18:30:34;6.25;;;5.55;;
23282;SDS011;11810;51.178;3.878;2023-02-28T18:33:05;9.27;;;6.82;;
23282;SDS011;11810;51.178;3.878;2023-02-28T18:35:31;9.82;;;7.18;;
23282;SDS011;11810;51.178;3.878;2023-02-28T18:40:13;10.27;;;6.80;;